Time;durP1;ratioP1;P1;durP2;ratioP2;P2;SDS_P1;SDS_P2;PMS_P1;PMS_P2;Temp;Humidity;BMP_temperature;BMP_pressure;BME280_temperature;BME280_humidity;BME280_pressure;Samples;Min_cycle;Max_cycle;Signal;HPM_P1;HPM_P2
2021/12/30 00:01:50;;;;;;;92.62;46.77;;;;;;;-0.45;84.56;100092.80;3559125;79;21077;-67
2021/12/30 00:06:42;;;;;;;109.22;50.52;;;;;;;-0.43;84.63;100098.48;3459555;79;21014;-68
2021/12/30 00:11:35;;;;;;;110.95;51.55;;;;;;;-0.40;84.73;100103.72;3479098;79;20913;-69
2021/12/30 00:16:28;;;;;;;111.22;52.23;;;;;;;-0.37;84.73;100097.91;3526042;79;20951;-70
2021/12/30 00:21:20;;;;;;;108.87;52.03;;;;;;;-0.34;84.80;100103.19;3516274;79;20898;-68
2021/12/30 00:26:13;;;;;;;102.87;50.33;;;;;;;-0.31;84.84;100107.14;3483424;80;21714;-69
2021/12/30 00:31:06;;;;;;;103.35;50.03;;;;;;;-0.28;84.86;100110.27;3448006;80;20943;-69
2021/12/30 00:35:58;;;;;;;112.75;55.85;;;;;;;-0.26;84.86;100115.05;3505722;79;21459;-68
2021/12/30 00:40:51;;;;;;;107.12;51.98;;;;;;;-0.25;84.91;100103.64;3522060;79;20966;-68
2021/12/30 00:45:43;;;;;;;117.55;55.60;;;;;;;-0.24;84.81;100109.21;3486312;79;21314;-69
2021/12/30 00:50:39;;;;;;;107.70;53.87;;;;;;;-0.18;85.03;100121.41;3472735;79;22422;-69
2021/12/30 00:55:31;;;;;;;103.65;52.27;;;;;;;-0.13;85.00;100113.99;3493856;79;20953;-68
2021/12/30 01:00:23;;;;;;;109.70;51.33;;;;;;;-0.13;84.96;100122.52;3467665;79;20960;-69
2021/12/30 01:05:16;;;;;;;106.75;50.95;;;;;;;-0.13;85.10;100113.58;3494513;79;20923;-69
2021/12/30 01:10:13;;;;;;;124.07;54.83;;;;;;;-0.10;85.09;100108.63;3526628;78;21519;-69
2021/12/30 01:15:10;;;;;;;108.32;52.08;;;;;;;-0.07;85.18;100099.84;3496355;79;21775;-67
2021/12/30 01:20:04;;;;;;;108.95;52.90;;;;;;;-0.04;85.20;100096.14;3451848;79;20908;-68
2021/12/30 01:24:56;;;;;;;116.67;55.10;;;;;;;-0.02;85.26;100089.45;3494262;79;22079;-69
2021/12/30 01:29:49;;;;;;;107.03;50.28;;;;;;;0.02;85.29;100092.14;3524066;79;20925;-69
2021/12/30 01:34:41;;;;;;;111.22;52.95;;;;;;;0.02;85.59;100088.30;3446041;79;20914;-68
2021/12/30 01:39:38;;;;;;;111.08;53.90;;;;;;;0.04;85.49;100091.84;3464329;79;21279;-69
2021/12/30 01:44:32;;;;;;;115.97;56.40;;;;;;;0.09;85.56;100100.58;3489570;79;20969;-69
2021/12/30 01:49:25;;;;;;;111.77;50.12;;;;;;;0.10;85.66;100104.91;3500695;78;20922;-69
2021/12/30 01:54:18;;;;;;;101.35;48.35;;;;;;;0.13;85.66;100122.96;3514592;79;20981;-69
2021/12/30 01:59:10;;;;;;;104.60;50.40;;;;;;;0.15;85.52;100109.85;3490540;79;20945;-68
2021/12/30 02:04:02;;;;;;;113.95;51.30;;;;;;;0.17;85.55;100110.80;3457624;79;20922;-68
2021/12/30 02:08:54;;;;;;;99.45;51.48;;;;;;;0.19;85.63;100105.35;3512972;79;21013;-68
2021/12/30 02:13:52;;;;;;;91.78;45.55;;;;;;;0.22;85.70;100107.20;3459700;80;20947;-68
2021/12/30 02:18:45;;;;;;;109.30;53.17;;;;;;;0.23;85.79;100105.97;3478366;79;20947;-68
2021/12/30 02:23:38;;;;;;;113.28;52.13;;;;;;;0.24;85.71;100103.90;3505593;79;20950;-69
2021/12/30 02:28:34;;;;;;;102.05;51.75;;;;;;;0.25;85.76;100091.61;3529430;79;21354;-69
2021/12/30 02:33:26;;;;;;;106.17;48.17;;;;;;;0.27;85.83;100102.78;3508320;79;21451;-69
2021/12/30 02:38:20;;;;;;;94.35;49.75;;;;;;;0.28;85.81;100098.53;3486982;79;20941;-68
2021/12/30 02:43:17;;;;;;;95.42;48.23;;;;;;;0.30;85.82;100086.28;3484230;79;20982;-69
2021/12/30 02:48:19;;;;;;;;;;;;;;;0.31;85.93;100095.72;3514387;79;20929;-68
2021/12/30 02:53:13;;;;;;;101.97;50.30;;;;;;;0.32;85.84;100090.20;3460619;79;21065;-68
2021/12/30 02:58:05;;;;;;;100.75;51.28;;;;;;;0.33;85.91;100100.50;3499944;79;20965;-68
2021/12/30 03:02:58;;;;;;;108.37;54.05;;;;;;;0.33;86.18;100104.34;3549257;79;21037;-69
2021/12/30 03:07:52;;;;;;;107.37;51.45;;;;;;;0.34;85.97;100104.83;3518542;79;21466;-69
2021/12/30 03:12:45;;;;;;;95.60;49.88;;;;;;;0.35;86.02;100104.00;3517124;79;20959;-69
2021/12/30 03:17:39;;;;;;;102.45;51.30;;;;;;;0.36;86.02;100101.07;3491620;79;21090;-68
2021/12/30 03:22:31;;;;;;;101.90;50.83;;;;;;;0.40;86.06;100103.38;3546799;79;21182;-69
2021/12/30 03:27:23;;;;;;;96.67;47.15;;;;;;;0.42;86.10;100109.44;3514321;79;20938;-68
2021/12/30 03:32:15;;;;;;;98.52;48.75;;;;;;;0.45;86.12;100100.60;3522243;79;20941;-69
2021/12/30 03:37:07;;;;;;;108.30;49.80;;;;;;;0.45;86.08;100101.88;3544768;79;20928;-68
2021/12/30 03:41:59;;;;;;;105.20;49.73;;;;;;;0.49;86.10;100116.59;3493623;79;21873;-69
2021/12/30 03:46:51;;;;;;;110.35;52.15;;;;;;;0.50;86.19;100120.89;3547161;79;20986;-69
2021/12/30 03:51:43;;;;;;;104.00;51.53;;;;;;;0.54;86.27;100127.93;3431814;79;21007;-68
2021/12/30 03:56:36;;;;;;;97.97;49.58;;;;;;;0.55;86.17;100125.83;3538418;79;20934;-70
2021/12/30 04:01:28;;;;;;;104.50;52.15;;;;;;;0.56;86.21;100131.44;3493637;79;20964;-69
2021/12/30 04:06:21;;;;;;;103.32;50.63;;;;;;;0.58;86.20;100132.79;3479024;79;21084;-69
2021/12/30 04:11:14;;;;;;;111.22;50.78;;;;;;;0.61;86.25;100137.65;3496535;79;20932;-69
2021/12/30 04:16:06;;;;;;;100.62;50.67;;;;;;;0.63;86.28;100138.59;3524924;79;20942;-69
2021/12/30 04:20:59;;;;;;;103.70;50.45;;;;;;;0.63;86.15;100139.88;3496590;80;21008;-69
2021/12/30 04:25:52;;;;;;;95.07;52.67;;;;;;;0.65;86.11;100151.05;3538715;79;20921;-68
2021/12/30 04:30:44;;;;;;;105.37;52.35;;;;;;;0.66;86.21;100152.82;3544801;79;21034;-69
2021/12/30 04:35:36;;;;;;;113.62;53.65;;;;;;;0.67;86.22;100176.30;3472498;79;21192;-68
2021/12/30 04:40:28;;;;;;;101.27;52.23;;;;;;;0.68;86.33;100179.36;3461430;79;20905;-68
2021/12/30 04:45:21;;;;;;;104.32;51.48;;;;;;;0.72;86.35;100171.01;3483504;79;21003;-68
2021/12/30 04:50:14;;;;;;;101.72;49.60;;;;;;;0.74;86.25;100170.67;3534775;79;21497;-68
2021/12/30 04:55:07;;;;;;;105.92;53.13;;;;;;;0.73;86.15;100170.22;3460580;79;20957;-68
2021/12/30 04:59:59;;;;;;;94.35;49.48;;;;;;;0.74;86.21;100165.56;3497897;79;20954;-67
2021/12/30 05:04:51;;;;;;;89.90;49.23;;;;;;;0.75;86.21;100163.48;3489546;79;20953;-69
2021/12/30 05:09:43;;;;;;;97.55;47.83;;;;;;;0.75;86.08;100162.20;3490871;81;20993;-69
2021/12/30 05:14:35;;;;;;;97.90;49.55;;;;;;;0.78;86.14;100156.75;3503000;79;20906;-68
2021/12/30 05:19:27;;;;;;;101.18;50.52;;;;;;;0.78;86.10;100160.59;3522798;79;20963;-68
2021/12/30 05:24:19;;;;;;;98.90;49.48;;;;;;;0.75;86.03;100154.53;3485743;79;21042;-68
2021/12/30 05:29:11;;;;;;;98.12;49.27;;;;;;;0.74;86.09;100170.67;3480558;79;20972;-68
2021/12/30 05:34:04;;;;;;;99.80;48.73;;;;;;;0.76;86.13;100178.02;3493209;79;20907;-68
2021/12/30 05:38:56;;;;;;;96.02;46.25;;;;;;;0.79;86.12;100177.69;3519663;79;20965;-68
2021/12/30 05:43:48;;;;;;;100.75;48.02;;;;;;;0.79;86.18;100153.38;3487485;79;21469;-67
2021/12/30 05:48:40;;;;;;;96.15;49.13;;;;;;;0.76;86.07;100134.92;3491788;79;21791;-68
2021/12/30 05:53:32;;;;;;;100.53;49.23;;;;;;;0.76;86.13;100146.44;3546448;79;21433;-68
2021/12/30 05:58:24;;;;;;;99.15;50.85;;;;;;;0.78;86.35;100160.59;3456666;79;21486;-69
2021/12/30 06:03:19;;;;;;;101.90;52.03;;;;;;;0.80;86.25;100172.64;3511069;81;21766;-69
2021/12/30 06:08:11;;;;;;;106.12;53.98;;;;;;;0.82;86.30;100188.08;3467633;79;20974;-68
2021/12/30 06:13:03;;;;;;;111.22;53.58;;;;;;;0.84;86.34;100208.22;3453576;81;20968;-68
2021/12/30 06:17:55;;;;;;;112.50;54.73;;;;;;;0.86;86.53;100213.00;3474614;81;21410;-68
2021/12/30 06:22:49;;;;;;;105.58;53.92;;;;;;;0.87;86.38;100212.21;3500566;80;21498;-68
2021/12/30 06:27:41;;;;;;;97.62;52.73;;;;;;;0.88;86.35;100212.29;3486092;81;21354;-67
2021/12/30 06:32:33;;;;;;;103.38;50.85;;;;;;;0.91;86.50;100238.05;3525976;81;21875;-68
2021/12/30 06:37:25;;;;;;;102.47;49.83;;;;;;;0.95;86.57;100232.67;3537869;81;20941;-68
2021/12/30 06:42:17;;;;;;;102.12;50.33;;;;;;;0.93;86.25;100232.97;3520937;81;20981;-68
2021/12/30 06:47:10;;;;;;;100.07;50.55;;;;;;;0.95;86.33;100232.67;3484342;80;20973;-68
2021/12/30 06:52:09;;;;;;;99.15;49.88;;;;;;;0.95;86.23;100234.81;3533549;81;20943;-68
2021/12/30 06:57:03;;;;;;;102.97;48.35;;;;;;;0.95;86.09;100231.39;3484918;81;21157;-68
2021/12/30 07:01:57;;;;;;;102.40;49.75;;;;;;;0.96;86.02;100238.24;3473579;81;20936;-69
2021/12/30 07:06:49;;;;;;;98.72;51.88;;;;;;;0.97;86.23;100247.70;3451002;79;20981;-68
2021/12/30 07:11:41;;;;;;;97.78;50.67;;;;;;;1.01;86.15;100243.19;3446268;81;21019;-68
2021/12/30 07:16:33;;;;;;;100.07;51.63;;;;;;;1.04;86.17;100244.63;3326206;83;20999;-69
2021/12/30 07:21:25;;;;;;;104.92;52.90;;;;;;;1.10;86.29;100256.42;3371219;80;20978;-68
2021/12/30 07:26:17;;;;;;;104.25;51.13;;;;;;;1.16;86.16;100255.83;3440821;81;21457;-69
2021/12/30 07:31:10;;;;;;;95.72;50.08;;;;;;;1.22;86.01;100259.11;3422228;81;21591;-69
2021/12/30 07:36:03;;;;;;;111.15;53.25;;;;;;;1.29;85.97;100256.03;3447472;81;20968;-68
2021/12/30 07:40:55;;;;;;;103.17;50.70;;;;;;;1.33;85.85;100260.06;3314223;82;21440;-68
2021/12/30 07:45:48;;;;;;;102.02;48.30;;;;;;;1.34;85.74;100266.06;3353557;82;21080;-68
2021/12/30 07:50:40;;;;;;;95.87;49.40;;;;;;;1.33;85.67;100261.76;3420755;81;21017;-69
2021/12/30 07:55:32;;;;;;;99.90;49.70;;;;;;;1.33;85.71;100256.22;3411738;81;20956;-68
2021/12/30 08:00:25;;;;;;;109.48;52.25;;;;;;;1.35;85.61;100263.11;3387161;81;21602;-69
2021/12/30 08:05:19;;;;;;;94.10;48.78;;;;;;;1.32;85.62;100269.86;3477621;79;21004;-69
2021/12/30 08:10:14;;;;;;;95.97;48.83;;;;;;;1.35;85.60;100268.23;3540445;78;21852;-68
2021/12/30 08:15:08;;;;;;;97.15;51.10;;;;;;;1.39;85.67;100262.44;3567637;78;20945;-67
2021/12/30 08:20:00;;;;;;;99.47;50.33;;;;;;;1.48;85.54;100248.36;3527031;79;21525;-69
2021/12/30 08:24:52;;;;;;;92.45;50.25;;;;;;;1.62;85.39;100254.13;3437728;79;20982;-69
2021/12/30 08:29:45;;;;;;;101.80;50.33;;;;;;;1.64;85.40;100259.32;3431173;79;20979;-68
2021/12/30 08:34:38;;;;;;;87.37;45.65;;;;;;;1.72;85.45;100261.84;3433523;79;20943;-67
2021/12/30 08:39:30;;;;;;;92.15;47.15;;;;;;;1.82;85.34;100260.14;3450877;79;20976;-69
2021/12/30 08:44:24;;;;;;;83.00;46.68;;;;;;;1.86;85.28;100273.59;3463500;79;22452;-68
2021/12/30 08:49:17;;;;;;;86.55;46.08;;;;;;;1.88;85.32;100264.69;3524601;79;21050;-70
2021/12/30 08:54:09;;;;;;;87.78;48.65;;;;;;;1.89;85.34;100268.99;3500106;79;20978;-68
2021/12/30 08:59:01;;;;;;;86.85;46.83;;;;;;;1.93;85.70;100275.13;3474137;79;21064;-68
2021/12/30 09:03:53;;;;;;;80.42;44.83;;;;;;;1.97;85.46;100275.35;3526046;81;20992;-69
2021/12/30 09:08:46;;;;;;;80.80;47.67;;;;;;;1.99;85.42;100268.59;3526439;80;20974;-68
2021/12/30 09:13:38;;;;;;;86.08;47.88;;;;;;;2.10;85.22;100278.05;3495909;79;20967;-68
2021/12/30 09:18:30;;;;;;;87.27;45.28;;;;;;;2.08;85.10;100279.26;3423855;80;21548;-68
2021/12/30 09:23:23;;;;;;;82.22;44.27;;;;;;;2.08;85.11;100267.72;3504720;79;21027;-69
2021/12/30 09:28:15;;;;;;;79.22;44.83;;;;;;;2.09;85.00;100266.02;3509080;78;21279;-68
2021/12/30 09:33:09;;;;;;;82.57;47.30;;;;;;;2.07;84.98;100262.52;3548389;78;21013;-67
2021/12/30 09:38:01;;;;;;;76.37;43.63;;;;;;;2.05;85.05;100248.75;3527451;78;20926;-68
2021/12/30 09:43:04;;;;;;;76.37;43.98;;;;;;;2.05;85.13;100244.91;3536016;78;20964;-68
2021/12/30 09:47:59;;;;;;;77.85;44.42;;;;;;;2.02;85.06;100242.20;3499173;78;20989;-69
2021/12/30 09:52:51;;;;;;;84.50;46.55;;;;;;;2.07;85.18;100259.95;3478410;78;20958;-68
2021/12/30 09:57:45;;;;;;;80.57;45.03;;;;;;;2.08;85.26;100244.63;3567417;78;20960;-68
2021/12/30 10:02:37;;;;;;;70.20;40.58;;;;;;;2.10;85.65;100239.58;3544516;79;20953;-69
2021/12/30 10:07:29;;;;;;;75.22;44.77;;;;;;;2.11;85.62;100238.78;3459124;81;20932;-69
2021/12/30 10:12:41;;;;;;;74.92;42.40;;;;;;;2.16;85.56;100237.67;3516856;80;21076;-68
2021/12/30 10:17:34;;;;;;;70.37;42.67;;;;;;;2.24;85.47;100232.48;3521510;78;20954;-69
2021/12/30 10:22:26;;;;;;;76.67;45.95;;;;;;;2.34;85.20;100223.47;3503536;79;20955;-68
2021/12/30 10:27:30;;;;;;;76.30;43.87;;;;;;;2.36;85.50;100223.13;3515458;79;21059;-69
2021/12/30 10:32:25;;;;;;;76.07;44.03;;;;;;;2.39;85.49;100215.56;3502553;80;20906;-67
2021/12/30 10:37:21;;;;;;;78.17;47.15;;;;;;;2.38;85.42;100219.83;3460558;80;20986;-68
2021/12/30 10:42:21;;;;;;;84.32;47.08;;;;;;;2.42;85.56;100215.70;3535484;79;20991;-68
2021/12/30 10:47:15;;;;;;;74.50;44.23;;;;;;;2.40;85.56;100213.07;3471300;79;21003;-69
2021/12/30 10:52:07;;;;;;;76.42;46.80;;;;;;;2.38;85.62;100207.00;3495814;79;20998;-68
2021/12/30 10:57:09;;;;;;;81.85;47.78;;;;;;;2.36;85.58;100207.73;3522303;79;21134;-68
2021/12/30 11:02:08;;;;;;;84.50;49.93;;;;;;;2.36;85.72;100201.32;3484083;79;21022;-68
2021/12/30 11:07:00;;;;;;;83.52;47.10;;;;;;;2.41;85.83;100210.09;3516927;79;20942;-68
2021/12/30 11:11:58;;;;;;;81.45;47.17;;;;;;;2.41;85.60;100208.39;3495003;79;21433;-69
2021/12/30 11:17:16;;;;;;;82.10;45.95;;;;;;;2.46;86.00;100213.31;3546287;79;21096;-68
2021/12/30 11:22:13;;;;;;;89.55;50.92;;;;;;;2.49;85.60;100212.58;3514713;79;20926;-68
2021/12/30 11:27:10;;;;;;;84.07;49.70;;;;;;;2.52;85.89;100201.13;3547251;79;21540;-68
2021/12/30 11:32:03;;;;;;;78.97;46.83;;;;;;;2.54;85.51;100195.69;3493289;79;20968;-68
2021/12/30 11:36:56;;;;;;;77.85;46.68;;;;;;;2.56;85.71;100184.17;3496845;79;20968;-68
2021/12/30 11:42:08;;;;;;;78.00;47.30;;;;;;;2.70;85.52;100182.17;3490003;79;20960;-69
2021/12/30 11:47:01;;;;;;;71.53;43.28;;;;;;;2.92;85.25;100200.19;3357505;84;22443;-68
2021/12/30 11:51:53;;;;;;;73.83;46.45;;;;;;;2.99;85.81;100185.48;3312575;84;20953;-68
2021/12/30 11:56:46;;;;;;;74.65;44.40;;;;;;;3.06;85.41;100185.33;3277163;84;21057;-67
2021/12/30 12:01:42;;;;;;;68.52;43.70;;;;;;;3.04;85.59;100180.52;3280893;83;20964;-67
2021/12/30 12:06:44;;;;;;;72.17;43.05;;;;;;;3.15;85.57;100183.49;3315452;83;21013;-68
2021/12/30 12:11:56;;;;;;;67.90;42.65;;;;;;;3.32;85.32;100181.16;3318050;83;21557;-68
2021/12/30 12:17:00;;;;;;;67.17;42.23;;;;;;;3.53;85.18;100178.52;3375491;83;21022;-67
2021/12/30 12:21:54;;;;;;;64.35;42.50;;;;;;;3.62;85.02;100178.84;3375191;79;21488;-68
2021/12/30 12:26:48;;;;;;;61.30;38.83;;;;;;;3.65;84.94;100184.53;3519790;79;20958;-69
2021/12/30 12:32:00;;;;;;;56.37;38.15;;;;;;;3.70;85.05;100171.44;3457464;79;20949;-68
2021/12/30 12:36:52;;;;;;;57.35;37.23;;;;;;;3.71;84.58;100177.02;3470425;79;21578;-67
2021/12/30 12:41:52;;;;;;;60.63;40.35;;;;;;;3.71;84.77;100174.45;3502431;80;22390;-68
2021/12/30 12:46:51;;;;;;;59.77;38.02;;;;;;;3.62;84.66;100179.27;3502978;79;21215;-68
2021/12/30 12:51:55;;;;;;;55.95;36.63;;;;;;;3.53;84.63;100176.37;3514308;79;21565;-68
2021/12/30 12:56:47;;;;;;;54.70;38.67;;;;;;;3.41;84.66;100168.65;3540781;79;20976;-68
2021/12/30 13:01:45;;;;;;;56.80;39.08;;;;;;;3.37;84.79;100157.80;3450734;80;21030;-68
2021/12/30 13:06:45;;;;;;;56.88;38.53;;;;;;;3.38;84.66;100171.52;3454249;80;20974;-68
2021/12/30 13:11:43;;;;;;;54.23;36.45;;;;;;;3.38;84.94;100173.70;3481966;80;20948;-67
2021/12/30 13:16:40;;;;;;;51.40;34.92;;;;;;;3.33;85.00;100179.08;3479355;80;20960;-67
2021/12/30 13:21:53;;;;;;;48.75;35.00;;;;;;;3.28;85.29;100188.30;3437099;80;21083;-68
2021/12/30 13:26:45;;;;;;;45.95;34.83;;;;;;;3.18;85.07;100186.19;3449398;80;20968;-68
2021/12/30 13:31:38;;;;;;;52.60;36.17;;;;;;;3.02;85.34;100185.62;3400751;80;20998;-68
2021/12/30 13:36:30;;;;;;;49.65;36.53;;;;;;;2.92;85.24;100178.36;3436617;80;21575;-68
2021/12/30 13:41:22;;;;;;;47.55;34.18;;;;;;;2.90;85.89;100179.10;3456605;80;21435;-68
2021/12/30 13:46:19;;;;;;;48.45;34.98;;;;;;;2.86;85.48;100181.57;3439767;80;20964;-68
2021/12/30 13:51:17;;;;;;;47.80;33.98;;;;;;;2.79;85.43;100184.71;3476676;80;22552;-68
2021/12/30 13:56:13;;;;;;;47.90;33.73;;;;;;;2.72;85.51;100199.78;3479048;80;21164;-68
2021/12/30 14:01:16;;;;;;;48.10;33.20;;;;;;;2.66;85.68;100198.75;3446548;79;20984;-69
2021/12/30 14:06:13;;;;;;;49.03;33.05;;;;;;;2.59;85.81;100195.44;3455980;81;20960;-68
2021/12/30 14:11:06;;;;;;;46.40;33.73;;;;;;;2.54;85.87;100185.42;3442776;80;21588;-68
2021/12/30 14:15:59;;;;;;;52.30;34.33;;;;;;;2.50;86.01;100186.08;3462441;81;20946;-68
2021/12/30 14:20:51;;;;;;;49.40;33.00;;;;;;;2.44;85.95;100174.30;3476365;81;21163;-67
2021/12/30 14:25:44;;;;;;;52.05;34.75;;;;;;;2.44;86.09;100185.84;3499457;81;21601;-67
2021/12/30 14:30:37;;;;;;;48.02;34.58;;;;;;;2.36;85.87;100188.11;3429416;81;20959;-68
2021/12/30 14:35:29;;;;;;;50.23;34.70;;;;;;;2.33;86.04;100187.10;3418784;81;21005;-68
2021/12/30 14:40:21;;;;;;;53.20;36.50;;;;;;;2.34;86.55;100183.70;3493312;78;21013;-68
2021/12/30 14:45:17;;;;;;;43.83;32.95;;;;;;;2.39;87.08;100171.95;3553939;78;21080;-69
2021/12/30 14:50:28;;;;;;;50.78;32.63;;;;;;;2.36;86.75;100174.38;3523589;78;20941;-69
2021/12/30 14:55:28;;;;;;;53.65;35.15;;;;;;;2.38;87.06;100177.88;3540899;78;20946;-69
2021/12/30 15:00:24;;;;;;;52.88;34.43;;;;;;;2.36;86.65;100178.23;3531841;78;21072;-68
2021/12/30 15:05:19;;;;;;;48.20;34.23;;;;;;;2.36;86.91;100175.66;3526768;78;21352;-68
2021/12/30 15:10:15;;;;;;;55.75;33.08;;;;;;;2.43;87.41;100176.38;3483952;78;21603;-68
2021/12/30 15:15:11;;;;;;;55.48;36.10;;;;;;;2.45;87.56;100192.72;3597303;78;20934;-68
2021/12/30 15:20:06;;;;;;;55.08;34.90;;;;;;;2.45;87.44;100197.84;3495431;78;21441;-68
2021/12/30 15:25:00;;;;;;;62.35;36.40;;;;;;;2.48;87.60;100200.55;3511725;78;21207;-68
2021/12/30 15:29:52;;;;;;;55.15;34.08;;;;;;;2.54;87.90;100197.35;3545033;78;20926;-69
2021/12/30 15:34:44;;;;;;;56.10;36.33;;;;;;;2.61;88.41;100188.70;3515661;78;20999;-69
2021/12/30 15:39:36;;;;;;;48.58;31.45;;;;;;;2.65;87.87;100199.55;3548793;78;21007;-68
2021/12/30 15:44:28;;;;;;;59.60;36.38;;;;;;;2.64;87.69;100188.80;3543735;78;21020;-69
2021/12/30 15:49:20;;;;;;;57.60;36.63;;;;;;;2.65;88.03;100195.70;3498646;79;21436;-68
2021/12/30 15:54:15;;;;;;;56.08;36.68;;;;;;;2.63;87.81;100202.47;3584614;78;20999;-69
2021/12/30 15:59:07;;;;;;;60.67;35.65;;;;;;;2.59;87.58;100189.02;3523138;78;21632;-69
2021/12/30 16:04:00;;;;;;;50.90;33.28;;;;;;;2.57;88.05;100199.64;3469967;78;20953;-68
2021/12/30 16:08:52;;;;;;;53.25;33.45;;;;;;;2.56;87.71;100206.89;3533259;79;21553;-68
2021/12/30 16:13:45;;;;;;;51.15;33.55;;;;;;;2.58;87.85;100198.84;3514377;79;20966;-68
2021/12/30 16:18:38;;;;;;;51.50;33.13;;;;;;;2.55;87.65;100188.44;3492901;79;20936;-68
2021/12/30 16:23:32;;;;;;;51.90;32.60;;;;;;;2.50;87.56;100187.37;3549653;78;21031;-68
2021/12/30 16:28:25;;;;;;;55.63;34.33;;;;;;;2.49;87.54;100220.28;3461448;80;21554;-67
2021/12/30 16:33:18;;;;;;;49.25;32.03;;;;;;;2.49;87.48;100217.71;3564135;78;21061;-68
2021/12/30 16:38:13;;;;;;;46.23;30.32;;;;;;;2.44;87.29;100188.41;3519077;79;21521;-67
2021/12/30 16:43:07;;;;;;;48.50;31.35;;;;;;;2.38;87.24;100172.75;3543662;79;20956;-68
2021/12/30 16:48:00;;;;;;;51.90;31.55;;;;;;;2.34;87.14;100175.59;3465348;79;50718;-68
2021/12/30 16:52:53;;;;;;;51.80;31.07;;;;;;;2.32;87.15;100182.77;3559396;78;21002;-69
2021/12/30 16:57:45;;;;;;;50.92;31.82;;;;;;;2.27;86.93;100200.52;3582444;78;21090;-68
2021/12/30 17:02:38;;;;;;;52.08;31.10;;;;;;;2.29;87.25;100210.47;3503395;78;21732;-68
2021/12/30 17:07:31;;;;;;;47.43;33.40;;;;;;;2.27;87.01;100232.20;3488763;80;21561;-69
2021/12/30 17:12:23;;;;;;;44.25;29.10;;;;;;;2.25;87.04;100209.47;3492442;79;21019;-67
2021/12/30 17:17:15;;;;;;;45.90;29.57;;;;;;;2.24;87.01;100196.16;3488958;79;20981;-69
2021/12/30 17:22:07;;;;;;;47.85;28.65;;;;;;;2.20;87.01;100194.28;3482544;79;21486;-69
2021/12/30 17:27:00;;;;;;;49.90;32.73;;;;;;;2.18;86.97;100193.34;3537980;79;20956;-68
2021/12/30 17:31:52;;;;;;;47.70;30.45;;;;;;;2.18;87.03;100191.16;3474815;79;21152;-68
2021/12/30 17:36:44;;;;;;;47.38;29.72;;;;;;;2.19;87.32;100196.36;3479751;79;21297;-68
2021/12/30 17:41:38;;;;;;;44.95;29.05;;;;;;;2.20;87.17;100199.41;3520112;79;20968;-68
2021/12/30 17:46:32;;;;;;;41.23;27.77;;;;;;;2.20;87.15;100191.72;3493402;79;21027;-69
2021/12/30 17:51:24;;;;;;;42.88;28.55;;;;;;;2.17;86.92;100212.09;3472177;79;20973;-68
2021/12/30 17:56:18;;;;;;;48.00;30.95;;;;;;;2.19;87.14;100213.03;3466846;79;21466;-68
2021/12/30 18:01:10;;;;;;;43.63;28.20;;;;;;;2.22;87.21;100228.56;3523911;79;21721;-69
2021/12/30 18:06:03;;;;;;;43.95;29.18;;;;;;;2.24;87.09;100222.22;3516706;79;20905;-68
2021/12/30 18:10:55;;;;;;;42.43;28.02;;;;;;;2.24;87.14;100229.92;3553350;79;20947;-70
2021/12/30 18:15:48;;;;;;;46.60;28.17;;;;;;;2.23;86.96;100226.87;3542373;78;20988;-68
2021/12/30 18:20:40;;;;;;;43.42;27.02;;;;;;;2.21;86.89;100231.92;3556878;78;20989;-68
2021/12/30 18:25:33;;;;;;;44.90;27.65;;;;;;;2.28;87.69;100230.09;3569929;78;21801;-69
2021/12/30 18:30:26;;;;;;;46.13;28.07;;;;;;;2.33;87.35;100226.87;3526436;78;21053;-68
2021/12/30 18:35:18;;;;;;;42.13;27.32;;;;;;;2.32;87.28;100216.13;3577933;78;21464;-68
2021/12/30 18:40:12;;;;;;;38.10;25.55;;;;;;;2.28;87.16;100210.85;3530697;78;20966;-68
2021/12/30 18:45:06;;;;;;;39.53;27.73;;;;;;;2.26;87.21;100211.61;3510966;78;21013;-69
2021/12/30 18:49:58;;;;;;;44.53;28.02;;;;;;;2.26;87.19;100204.78;3563259;78;21726;-68
2021/12/30 18:54:50;;;;;;;36.90;24.45;;;;;;;2.23;86.99;100202.09;3573182;79;20976;-68
2021/12/30 18:59:45;;;;;;;39.30;24.77;;;;;;;2.22;86.91;100199.48;3531295;78;20925;-68
2021/12/30 19:04:37;;;;;;;38.83;24.43;;;;;;;2.22;86.98;100194.35;3557112;78;20943;-68
2021/12/30 19:09:29;;;;;;;39.65;24.90;;;;;;;2.22;86.94;100197.78;3418140;81;21667;-69
2021/12/30 19:14:21;;;;;;;36.30;23.25;;;;;;;2.20;86.95;100212.23;3442278;80;21159;-68
2021/12/30 19:19:13;;;;;;;32.03;21.57;;;;;;;2.22;87.06;100199.06;3400812;81;20958;-69
2021/12/30 19:24:06;;;;;;;34.65;21.17;;;;;;;2.23;87.03;100199.52;3494589;79;21432;-69
2021/12/30 19:28:59;;;;;;;29.25;20.70;;;;;;;2.21;86.97;100178.06;3497111;79;21008;-68
2021/12/30 19:33:52;;;;;;;32.05;21.27;;;;;;;2.20;86.93;100196.84;3452200;79;20950;-68
2021/12/30 19:38:44;;;;;;;33.95;22.30;;;;;;;2.21;87.32;100193.45;3419725;79;20942;-68
2021/12/30 19:43:42;;;;;;;36.20;22.22;;;;;;;2.23;87.15;100187.97;3476405;79;20915;-68
2021/12/30 19:48:35;;;;;;;36.67;22.83;;;;;;;2.21;86.98;100197.72;3478674;79;21013;-67
2021/12/30 19:53:27;;;;;;;34.05;23.35;;;;;;;2.24;87.21;100219.24;3502336;79;21418;-69
2021/12/30 19:58:20;;;;;;;36.20;22.77;;;;;;;2.25;87.18;100212.03;3503290;79;20969;-68
2021/12/30 20:03:12;;;;;;;37.53;24.50;;;;;;;2.25;86.96;100227.42;3488260;79;20961;-68
2021/12/30 20:08:06;;;;;;;35.98;23.10;;;;;;;2.23;86.88;100229.02;3523878;79;21029;-68
2021/12/30 20:12:58;;;;;;;38.35;23.35;;;;;;;2.23;86.89;100226.87;3494598;80;20973;-68
2021/12/30 20:17:50;;;;;;;35.65;22.55;;;;;;;2.24;86.90;100208.11;3500425;79;20902;-68
2021/12/30 20:22:49;;;;;;;40.12;23.40;;;;;;;2.24;87.00;100220.52;3461430;78;20978;-68
2021/12/30 20:27:39;;;;;;;38.70;24.05;;;;;;;2.26;87.07;100224.45;3467377;79;21555;-69
2021/12/30 20:32:32;;;;;;;41.40;24.63;;;;;;;2.28;87.14;100227.94;3437364;79;22053;-69
2021/12/30 20:37:25;;;;;;;40.83;25.50;;;;;;;2.29;87.31;100215.19;3471370;79;22051;-68
2021/12/30 20:42:18;;;;;;;40.80;24.72;;;;;;;2.29;87.20;100211.75;3444748;80;21597;-68
2021/12/30 20:47:11;;;;;;;45.70;26.37;;;;;;;2.28;87.18;100208.29;3547762;79;21207;-68
2021/12/30 20:52:05;;;;;;;38.20;22.85;;;;;;;2.32;87.42;100213.14;3439387;81;20988;-68
2021/12/30 20:56:57;;;;;;;44.27;26.65;;;;;;;2.36;87.54;100225.69;3492041;79;21277;-68
2021/12/30 21:01:50;;;;;;;43.58;26.65;;;;;;;2.38;87.48;100229.19;3477842;79;20948;-68
2021/12/30 21:06:43;;;;;;;44.15;26.90;;;;;;;2.40;87.40;100211.79;3492608;79;20954;-69
2021/12/30 21:11:36;;;;;;;42.13;26.42;;;;;;;2.44;87.61;100215.36;3522889;79;21040;-69
2021/12/30 21:16:28;;;;;;;50.88;31.12;;;;;;;2.44;87.57;100216.64;3442756;80;21612;-68
2021/12/30 21:21:23;;;;;;;56.40;31.05;;;;;;;2.48;87.96;100206.55;3499633;79;21001;-69
2021/12/30 21:26:17;;;;;;;46.13;27.58;;;;;;;2.47;87.67;100188.55;3500720;79;20972;-68
2021/12/30 21:31:09;;;;;;;46.45;29.12;;;;;;;2.43;87.62;100193.96;3498781;79;21519;-68
2021/12/30 21:36:01;;;;;;;47.90;27.22;;;;;;;2.45;87.85;100201.31;3490668;79;21450;-68
2021/12/30 21:40:55;;;;;;;42.20;25.82;;;;;;;2.51;88.26;100198.12;3480493;79;21498;-68
2021/12/30 21:45:49;;;;;;;41.73;23.62;;;;;;;2.57;88.29;100179.11;3472720;79;20984;-68
2021/12/30 21:50:41;;;;;;;39.30;24.45;;;;;;;2.60;88.36;100164.25;3475381;79;21015;-68
2021/12/30 21:55:36;;;;;;;39.50;23.35;;;;;;;2.58;88.07;100145.36;3495630;79;20954;-68
2021/12/30 22:00:28;;;;;;;42.10;25.88;;;;;;;2.55;88.00;100148.66;3478658;79;20954;-68
2021/12/30 22:05:26;;;;;;;40.55;24.80;;;;;;;2.57;88.23;100130.34;3495272;79;21881;-68
2021/12/30 22:10:18;;;;;;;37.50;23.73;;;;;;;2.54;88.05;100138.33;3538648;79;20942;-69
2021/12/30 22:15:12;;;;;;;43.78;26.60;;;;;;;2.51;88.02;100128.83;3558889;78;20950;-70
2021/12/30 22:20:08;;;;;;;38.50;24.25;;;;;;;2.53;88.47;100132.33;3472228;79;21575;-69
2021/12/30 22:25:01;;;;;;;41.02;26.00;;;;;;;2.57;88.32;100127.77;3507570;79;20924;-68